Terminal Aerodrome Forecast
Issued by NWS North Platte, NE

Home | Current Version | Previous Version | Text Only | Print | Product List | Glossary Off
Versions: 1 2 3 4 5 6 7 8 9 10 11 12 13 14 15 16 17 18 19 20 21 22 23 24 25 26 27 28 29

000
FTUS43 KLBF 281736
TAFVTN
TAF
KVTN 281736Z 2818/2918 VRB06KT P6SM SCT030 BKN100
      TEMPO 2822/2901 VRB20KT 5SM -TSRA OVC040CB
     FM290300 VRB04KT P6SM SCT200=

USA.gov is the U.S. government's official web portal to all federal, state and local government web resources and services.